createdAt,value
2023-01-28T00:01:19.367Z,7.35
2023-01-28T00:03:50.649Z,7.43
2023-01-28T00:06:17.905Z,7.03
2023-01-28T00:08:45.035Z,6.93
2023-01-28T00:11:13.510Z,9.38
2023-01-28T00:13:40.553Z,6.43
2023-01-28T00:16:11.620Z,6.80
2023-01-28T00:18:38.560Z,7.78
2023-01-28T00:21:10.864Z,9.02
2023-01-28T00:26:11.172Z,5.43
2023-01-28T00:28:37.942Z,6.00
2023-01-28T00:31:14.396Z,8.27
2023-01-28T00:33:41.021Z,6.82
2023-01-28T00:36:08.209Z,6.55
2023-01-28T00:38:35.434Z,8.48
2023-01-28T00:41:29.322Z,9.77
2023-01-28T00:43:56.477Z,8.20
2023-01-28T00:46:25.409Z,9.13
2023-01-28T00:48:52.544Z,10.23
2023-01-28T00:51:20.793Z,11.25
2023-01-28T00:53:47.982Z,8.50
2023-01-28T00:56:16.923Z,11.30
2023-01-28T00:58:44.225Z,9.32
2023-01-28T01:01:14.608Z,12.02
2023-01-28T01:03:41.824Z,11.85
2023-01-28T01:06:09.475Z,9.30
2023-01-28T01:08:40.078Z,10.20
2023-01-28T01:11:08.116Z,11.27
2023-01-28T01:13:37.767Z,13.50
2023-01-28T01:16:09.867Z,11.40
2023-01-28T01:18:38.086Z,11.13
2023-01-28T01:21:11.898Z,10.27
2023-01-28T01:23:39.027Z,9.40
2023-01-28T01:26:06.493Z,10.18
2023-01-28T01:28:33.634Z,9.38
2023-01-28T01:31:07.700Z,9.73
2023-01-28T01:33:35.213Z,10.68
2023-01-28T01:36:01.932Z,9.43
2023-01-28T01:38:29.918Z,9.57
2023-01-28T01:40:58.804Z,9.45
2023-01-28T01:43:26.428Z,9.30
2023-01-28T01:45:59.145Z,9.60
2023-01-28T01:48:31.793Z,12.85
2023-01-28T01:51:04.431Z,10.35
2023-01-28T01:53:32.645Z,12.70
2023-01-28T01:56:04.913Z,10.75
2023-01-28T02:01:00.464Z,10.20
2023-01-28T02:03:37.131Z,9.45
2023-01-28T02:06:04.894Z,11.15
2023-01-28T02:08:31.586Z,9.65
2023-01-28T02:11:04.088Z,8.48
2023-01-28T02:13:35.573Z,11.82
2023-01-28T02:16:04.120Z,8.77
2023-01-28T02:18:32.566Z,10.13
2023-01-28T02:21:30.870Z,7.63
2023-01-28T02:24:22.494Z,9.43
2023-01-28T02:27:13.782Z,8.37
2023-01-28T02:29:46.787Z,10.55
2023-01-28T02:32:13.380Z,9.88
2023-01-28T02:35:01.297Z,7.75
2023-01-28T02:37:38.208Z,7.45
2023-01-28T02:40:20.158Z,7.95
2023-01-28T02:42:46.834Z,12.25
2023-01-28T02:45:21.878Z,8.82
2023-01-28T02:48:00.443Z,10.98
2023-01-28T02:50:49.337Z,8.43
2023-01-28T02:53:34.588Z,9.38
2023-01-28T02:56:29.530Z,8.63
2023-01-28T02:59:34.021Z,8.18
2023-01-28T03:02:10.088Z,7.13
2023-01-28T03:05:11.938Z,8.25
2023-01-28T03:07:39.428Z,8.03
2023-01-28T03:10:13.273Z,8.98
2023-01-28T03:13:00.248Z,8.35
2023-01-28T03:15:51.135Z,9.50
2023-01-28T03:18:45.431Z,10.98
2023-01-28T03:21:42.484Z,7.47
2023-01-28T03:24:33.936Z,7.38
2023-01-28T03:27:46.879Z,8.75
2023-01-28T03:33:38.158Z,9.52
2023-01-28T03:36:25.471Z,7.65
2023-01-28T03:38:52.285Z,7.93
2023-01-28T03:41:25.225Z,8.20
2023-01-28T03:43:53.572Z,7.35
2023-01-28T03:46:20.542Z,11.57
2023-01-28T03:48:47.276Z,8.43
2023-01-28T03:51:14.122Z,7.63
2023-01-28T03:53:41.265Z,9.70
2023-01-28T03:56:08.973Z,11.02
2023-01-28T03:58:56.567Z,7.57
2023-01-28T04:01:23.613Z,8.65
2023-01-28T04:03:50.222Z,11.40
2023-01-28T04:06:16.882Z,9.40
2023-01-28T04:08:49.047Z,9.50
2023-01-28T04:11:15.963Z,9.45
2023-01-28T04:13:43.351Z,8.52
2023-01-28T04:16:11.009Z,6.57
2023-01-28T04:18:37.971Z,8.00
2023-01-28T04:21:04.924Z,9.88
2023-01-28T04:23:31.671Z,7.60
2023-01-28T04:25:58.281Z,7.95
2023-01-28T04:28:24.903Z,7.78
2023-01-28T04:30:52.622Z,8.45
2023-01-28T04:33:19.333Z,9.63
2023-01-28T04:35:45.994Z,12.70
2023-01-28T04:38:12.622Z,8.00
2023-01-28T04:40:39.227Z,10.13
2023-01-28T04:43:05.831Z,11.23
2023-01-28T04:45:32.419Z,11.18
2023-01-28T04:47:59.065Z,9.30
2023-01-28T04:50:26.910Z,9.18
2023-01-28T04:52:53.560Z,9.68
2023-01-28T04:55:20.124Z,10.50
2023-01-28T04:57:48.159Z,11.73
2023-01-28T05:00:15.170Z,10.50
2023-01-28T05:02:41.842Z,7.90
2023-01-28T05:05:11.254Z,7.70
2023-01-28T05:07:38.151Z,8.25
2023-01-28T05:10:05.690Z,11.20
2023-01-28T05:12:34.126Z,7.82
2023-01-28T05:15:01.323Z,11.23
2023-01-28T05:17:28.981Z,9.57
2023-01-28T05:19:55.799Z,11.00
2023-01-28T05:22:22.752Z,11.45
2023-01-28T05:24:49.464Z,7.57
2023-01-28T05:27:16.017Z,8.95
2023-01-28T05:29:42.859Z,9.43
2023-01-28T05:32:09.686Z,10.60
2023-01-28T05:34:36.319Z,9.40
2023-01-28T05:37:03.109Z,6.60
2023-01-28T05:39:30.184Z,10.98
2023-01-28T05:41:57.013Z,10.20
2023-01-28T05:44:23.616Z,13.48
2023-01-28T05:46:50.207Z,9.68
2023-01-28T05:49:16.861Z,7.15
2023-01-28T05:51:43.593Z,8.68
2023-01-28T05:54:10.728Z,9.15
2023-01-28T05:56:37.341Z,11.43
2023-01-28T05:59:05.503Z,12.05
2023-01-28T06:01:32.176Z,10.98
2023-01-28T06:03:59.381Z,13.43
2023-01-28T06:06:25.957Z,10.57
2023-01-28T06:08:52.578Z,12.55
2023-01-28T06:11:19.963Z,12.52
2023-01-28T06:13:46.612Z,10.00
2023-01-28T06:16:13.367Z,7.88
2023-01-28T06:18:41.420Z,11.45
2023-01-28T06:21:08.429Z,10.32
2023-01-28T06:23:35.118Z,10.50
2023-01-28T06:26:01.759Z,11.40
2023-01-28T06:28:28.433Z,11.23
2023-01-28T06:30:55.498Z,13.23
2023-01-28T06:33:22.693Z,10.38
2023-01-28T06:35:49.314Z,13.30
2023-01-28T06:38:15.919Z,13.93
2023-01-28T06:40:42.556Z,13.55
2023-01-28T06:43:09.152Z,11.35
2023-01-28T06:45:35.761Z,9.98
2023-01-28T06:48:04.241Z,12.23
2023-01-28T06:50:31.055Z,14.13
2023-01-28T06:52:57.668Z,11.75
2023-01-28T06:55:24.251Z,14.68
2023-01-28T06:57:50.883Z,9.68
2023-01-28T07:00:18.570Z,12.63
2023-01-28T07:02:45.443Z,12.43
2023-01-28T07:05:12.089Z,11.93
2023-01-28T07:07:41.445Z,12.55
2023-01-28T07:10:09.121Z,12.25
2023-01-28T07:12:35.820Z,12.32
2023-01-28T07:15:02.547Z,12.45
2023-01-28T07:17:29.198Z,13.93
2023-01-28T07:19:55.900Z,12.13
2023-01-28T07:22:22.486Z,10.30
2023-01-28T07:24:49.206Z,11.63
2023-01-28T07:27:15.986Z,11.60
2023-01-28T07:29:42.627Z,13.82
2023-01-28T07:32:09.372Z,10.07
2023-01-28T07:34:39.903Z,11.57
2023-01-28T07:37:06.847Z,14.38
2023-01-28T07:39:34.603Z,14.27
2023-01-28T07:42:02.015Z,13.30
2023-01-28T07:44:28.605Z,11.25
2023-01-28T07:46:55.293Z,11.02
2023-01-28T07:49:21.906Z,10.60
2023-01-28T07:51:50.581Z,10.95
2023-01-28T07:54:17.697Z,10.02
2023-01-28T07:56:44.334Z,11.43
2023-01-28T07:59:11.044Z,11.18
2023-01-28T08:01:37.666Z,11.98
2023-01-28T08:04:04.454Z,10.38
2023-01-28T08:06:31.376Z,10.20
2023-01-28T08:08:58.007Z,11.05
2023-01-28T08:11:24.681Z,13.60
2023-01-28T08:13:51.253Z,13.65
2023-01-28T08:16:17.972Z,12.82
2023-01-28T08:18:44.613Z,11.95
2023-01-28T08:21:11.196Z,11.82
2023-01-28T08:23:38.116Z,10.77
2023-01-28T08:26:05.855Z,10.48
2023-01-28T08:28:32.554Z,9.93
2023-01-28T08:31:02.763Z,9.65
2023-01-28T08:33:29.731Z,13.00
2023-01-28T08:35:56.566Z,12.52
2023-01-28T08:38:23.723Z,10.48
2023-01-28T08:40:56.632Z,11.07
2023-01-28T08:43:23.582Z,9.80
2023-01-28T08:45:50.465Z,10.57
2023-01-28T08:48:18.865Z,12.15
2023-01-28T08:50:45.920Z,9.23
2023-01-28T08:53:15.518Z,10.63
2023-01-28T08:55:42.329Z,16.48
2023-01-28T08:58:14.472Z,10.93
2023-01-28T09:00:41.938Z,13.02
2023-01-28T09:03:09.217Z,12.45
2023-01-28T09:05:37.524Z,14.80
2023-01-28T09:08:11.093Z,11.48
2023-01-28T09:10:38.143Z,11.27
2023-01-28T09:13:09.778Z,12.55
2023-01-28T09:15:37.775Z,14.95
2023-01-28T09:18:05.185Z,13.45
2023-01-28T09:20:35.233Z,11.90
2023-01-28T09:23:02.558Z,12.52
2023-01-28T09:25:29.841Z,16.23
2023-01-28T09:27:57.642Z,15.80
2023-01-28T09:30:24.720Z,13.50
2023-01-28T09:32:52.531Z,20.38
2023-01-28T09:35:19.779Z,17.40
2023-01-28T09:37:47.011Z,15.73
2023-01-28T09:40:34.560Z,12.52
2023-01-28T09:43:33.777Z,19.40
2023-01-28T09:46:04.519Z,11.93
2023-01-28T09:48:47.733Z,13.05
2023-01-28T09:51:47.314Z,16.73
2023-01-28T09:54:34.728Z,14.40
2023-01-28T09:57:07.138Z,14.05
2023-01-28T09:59:36.231Z,14.30
2023-01-28T10:02:26.181Z,10.88
2023-01-28T10:05:03.480Z,15.48
2023-01-28T10:07:47.556Z,13.80
2023-01-28T10:10:22.708Z,12.40
2023-01-28T10:13:07.663Z,16.25
2023-01-28T10:15:54.697Z,17.52
2023-01-28T10:18:35.815Z,12.77
2023-01-28T10:21:12.743Z,13.38
2023-01-28T10:24:01.583Z,14.90
2023-01-28T10:26:34.896Z,12.95
2023-01-28T10:29:11.920Z,15.15
2023-01-28T10:32:03.189Z,10.77
2023-01-28T10:34:29.908Z,13.23
2023-01-28T10:36:57.792Z,12.35
2023-01-28T10:39:26.454Z,15.45
2023-01-28T10:41:58.319Z,12.90
2023-01-28T10:47:01.734Z,13.27
2023-01-28T10:49:31.501Z,13.48
2023-01-28T10:51:58.959Z,12.40
2023-01-28T10:54:29.074Z,17.55
2023-01-28T10:57:00.936Z,11.40
2023-01-28T10:59:30.330Z,12.43
2023-01-28T11:02:01.257Z,10.90
2023-01-28T11:04:33.235Z,12.45
2023-01-28T11:07:16.317Z,12.20
2023-01-28T11:09:47.051Z,10.43
2023-01-28T11:12:21.954Z,12.73
2023-01-28T11:15:07.095Z,11.88
2023-01-28T11:17:38.222Z,13.55
2023-01-28T11:20:19.970Z,12.30
2023-01-28T11:22:48.401Z,13.80
2023-01-28T11:25:44.153Z,14.80
2023-01-28T11:28:20.215Z,12.10
2023-01-28T11:30:52.760Z,11.20
2023-01-28T11:33:29.150Z,12.40
2023-01-28T11:35:58.328Z,11.45
2023-01-28T11:38:26.368Z,11.88
2023-01-28T11:40:55.233Z,14.98
2023-01-28T11:43:23.920Z,13.88
2023-01-28T11:46:20.920Z,13.77
2023-01-28T11:49:32.259Z,12.50
2023-01-28T11:52:17.459Z,13.35
2023-01-28T11:55:18.214Z,10.60
2023-01-28T11:58:03.364Z,14.35
2023-01-28T12:00:45.466Z,9.05
2023-01-28T12:03:50.088Z,13.05
2023-01-28T12:06:40.339Z,8.98
2023-01-28T12:09:49.446Z,13.23
2023-01-28T12:12:39.137Z,14.23
2023-01-28T12:15:43.224Z,10.35
2023-01-28T12:18:18.954Z,10.25
2023-01-28T12:21:10.644Z,17.77
2023-01-28T12:23:48.128Z,12.60
2023-01-28T12:26:46.334Z,14.45
2023-01-28T12:29:16.046Z,13.05
2023-01-28T12:32:19.055Z,12.07
2023-01-28T12:35:22.811Z,14.93
2023-01-28T12:37:58.494Z,15.18
2023-01-28T12:40:50.606Z,14.13
2023-01-28T12:43:47.076Z,13.38
2023-01-28T12:46:37.896Z,12.43
2023-01-28T12:49:19.986Z,14.38
2023-01-28T12:52:11.200Z,15.55
2023-01-28T12:54:49.773Z,14.43
2023-01-28T12:57:27.097Z,9.02
2023-01-28T13:00:18.197Z,15.68
2023-01-28T13:02:57.484Z,12.50
2023-01-28T13:05:34.203Z,11.73
2023-01-28T13:08:10.599Z,11.68
2023-01-28T13:10:45.769Z,10.55
2023-01-28T13:13:34.053Z,13.30
2023-01-28T13:16:02.749Z,14.02
2023-01-28T13:18:41.667Z,11.90
2023-01-28T13:21:15.625Z,12.60
2023-01-28T13:23:50.213Z,19.02
2023-01-28T13:26:19.619Z,15.05
2023-01-28T13:28:48.654Z,16.55
2023-01-28T13:31:17.901Z,12.30
2023-01-28T13:33:53.659Z,15.57
2023-01-28T13:36:28.555Z,12.55
2023-01-28T13:39:06.737Z,13.18
2023-01-28T13:41:42.545Z,15.77
2023-01-28T13:44:25.432Z,19.95
2023-01-28T13:46:58.566Z,15.02
2023-01-28T13:49:40.196Z,16.40
2023-01-28T13:52:23.759Z,15.68
2023-01-28T13:55:04.292Z,16.55
2023-01-28T13:57:47.749Z,15.18
2023-01-28T14:00:24.536Z,12.80
2023-01-28T14:02:52.726Z,15.13
2023-01-28T14:05:39.410Z,12.73
2023-01-28T14:08:33.331Z,12.98
2023-01-28T14:11:34.112Z,11.52
2023-01-28T14:14:24.723Z,10.68
2023-01-28T14:17:10.209Z,13.20
2023-01-28T14:19:38.540Z,26.52
2023-01-28T14:22:09.617Z,19.05
2023-01-28T14:24:40.652Z,16.92
2023-01-28T14:27:36.014Z,11.18
2023-01-28T14:30:25.817Z,14.13
2023-01-28T14:32:54.324Z,12.82
2023-01-28T14:35:32.996Z,13.52
2023-01-28T14:38:00.981Z,12.82
2023-01-28T14:40:30.014Z,17.65
2023-01-28T14:42:58.356Z,13.55
2023-01-28T14:45:55.271Z,12.10
2023-01-28T14:48:26.221Z,12.13
2023-01-28T14:51:03.134Z,13.27
2023-01-28T14:53:54.276Z,14.07
2023-01-28T14:56:36.391Z,13.20
2023-01-28T14:59:16.030Z,11.57
2023-01-28T15:01:47.655Z,12.35
2023-01-28T15:04:43.401Z,11.23
2023-01-28T15:07:25.567Z,11.85
2023-01-28T15:10:15.995Z,10.52
2023-01-28T15:12:48.327Z,9.38
2023-01-28T15:17:48.222Z,11.77
2023-01-28T15:20:24.099Z,8.63
2023-01-28T15:22:53.182Z,11.80
2023-01-28T15:25:22.913Z,8.45
2023-01-28T15:27:52.364Z,10.95
2023-01-28T15:30:26.597Z,10.65
2023-01-28T15:33:13.014Z,10.63
2023-01-28T15:35:49.767Z,9.98
2023-01-28T15:38:19.745Z,11.45
2023-01-28T15:40:56.936Z,10.93
2023-01-28T15:43:33.556Z,10.27
2023-01-28T15:46:01.563Z,10.70
2023-01-28T15:48:33.952Z,13.85
2023-01-28T15:51:09.085Z,24.73
2023-01-28T15:53:44.927Z,9.27
2023-01-28T15:56:13.951Z,8.82
2023-01-28T15:58:41.851Z,10.65
2023-01-28T16:01:08.642Z,9.88
2023-01-28T16:03:40.101Z,12.85
2023-01-28T16:06:12.795Z,12.20
2023-01-28T16:08:41.259Z,18.70
2023-01-28T16:11:10.179Z,13.60
2023-01-28T16:13:42.941Z,13.65
2023-01-28T16:16:10.488Z,11.93
2023-01-28T16:18:53.617Z,12.75
2023-01-28T16:21:32.489Z,10.20
2023-01-28T16:24:21.034Z,12.55
2023-01-28T16:27:00.393Z,15.13
2023-01-28T16:29:29.307Z,19.55
2023-01-28T16:31:59.963Z,13.00
2023-01-28T16:34:30.331Z,14.23
2023-01-28T16:37:00.411Z,15.35
2023-01-28T16:39:27.136Z,14.13
2023-01-28T16:41:53.986Z,13.40
2023-01-28T16:44:20.619Z,14.50
2023-01-28T16:46:47.309Z,15.15
2023-01-28T16:49:14.041Z,14.95
2023-01-28T16:51:44.114Z,15.93
2023-01-28T16:54:16.751Z,13.85
2023-01-28T16:56:47.620Z,15.18
2023-01-28T16:59:16.317Z,14.75
2023-01-28T17:01:44.344Z,14.70
2023-01-28T17:04:12.752Z,15.93
2023-01-28T17:06:43.682Z,12.07
2023-01-28T17:09:11.929Z,16.20
2023-01-28T17:11:39.785Z,12.40
2023-01-28T17:14:06.936Z,14.80
2023-01-28T17:16:33.636Z,13.70
2023-01-28T17:19:00.300Z,15.55
2023-01-28T17:21:27.050Z,13.93
2023-01-28T17:23:53.751Z,13.38
2023-01-28T17:26:23.530Z,16.48
2023-01-28T17:28:53.862Z,16.73
2023-01-28T17:31:21.937Z,16.77
2023-01-28T17:33:54.934Z,15.02
2023-01-28T17:36:22.105Z,18.50
2023-01-28T17:38:48.776Z,18.70
2023-01-28T17:41:17.362Z,14.68
2023-01-28T17:43:44.464Z,17.67
2023-01-28T17:46:15.419Z,16.75
2023-01-28T17:48:44.039Z,14.77
2023-01-28T17:51:10.715Z,17.52
2023-01-28T17:53:37.636Z,18.63
2023-01-28T17:56:05.236Z,20.30
2023-01-28T17:58:32.150Z,17.77
2023-01-28T18:00:58.783Z,19.27
2023-01-28T18:03:25.364Z,14.30
2023-01-28T18:06:01.248Z,14.45
2023-01-28T18:08:28.229Z,14.60
2023-01-28T18:10:55.632Z,15.70
2023-01-28T18:13:22.405Z,14.43
2023-01-28T18:15:49.022Z,14.20
2023-01-28T18:18:15.629Z,14.30
2023-01-28T18:20:42.305Z,14.15
2023-01-28T18:23:08.971Z,16.63
2023-01-28T18:25:35.683Z,16.10
2023-01-28T18:28:02.534Z,14.00
2023-01-28T18:30:30.192Z,16.48
2023-01-28T18:32:56.858Z,16.73
2023-01-28T18:35:23.520Z,15.75
2023-01-28T18:37:50.215Z,44.65
2023-01-28T18:40:16.990Z,27.20
2023-01-28T18:42:43.598Z,14.88
2023-01-28T18:45:10.651Z,15.95
2023-01-28T18:47:37.256Z,16.58
2023-01-28T18:50:04.242Z,15.70
2023-01-28T18:52:30.857Z,14.45
2023-01-28T18:54:58.927Z,17.05
2023-01-28T18:57:25.567Z,17.15
2023-01-28T18:59:52.374Z,16.70
2023-01-28T19:02:19.066Z,18.52
2023-01-28T19:04:45.713Z,17.48
2023-01-28T19:07:12.385Z,20.17
2023-01-28T19:09:39.033Z,20.13
2023-01-28T19:12:05.791Z,17.90
2023-01-28T19:14:32.726Z,21.17
2023-01-28T19:16:59.336Z,22.30
2023-01-28T19:19:26.384Z,15.75
2023-01-28T19:21:53.542Z,16.45
2023-01-28T19:24:20.574Z,17.80
2023-01-28T19:26:47.197Z,18.60
2023-01-28T19:29:15.901Z,17.30
2023-01-28T19:31:44.321Z,18.33
2023-01-28T19:34:11.198Z,18.83
2023-01-28T19:36:38.139Z,23.75
2023-01-28T19:39:07.716Z,20.75
2023-01-28T19:41:35.233Z,23.92
2023-01-28T19:44:01.921Z,22.13
2023-01-28T19:46:28.615Z,17.88
2023-01-28T19:48:55.412Z,16.45
2023-01-28T19:51:22.799Z,14.82
2023-01-28T19:53:54.103Z,17.20
2023-01-28T19:56:23.308Z,15.67
2023-01-28T19:58:50.428Z,16.42
2023-01-28T20:01:20.111Z,17.35
2023-01-28T20:03:59.650Z,15.45
2023-01-28T20:06:28.464Z,17.15
2023-01-28T20:08:57.189Z,19.05
2023-01-28T20:11:24.411Z,20.40
2023-01-28T20:13:52.195Z,20.05
2023-01-28T20:16:23.554Z,16.40
2023-01-28T20:18:55.701Z,18.67
2023-01-28T20:23:51.690Z,16.05
2023-01-28T20:26:21.336Z,21.48
2023-01-28T20:28:49.299Z,16.75
2023-01-28T20:31:16.462Z,18.27
2023-01-28T20:33:44.246Z,16.17
2023-01-28T20:36:13.183Z,20.77
2023-01-28T20:38:42.816Z,19.00
2023-01-28T20:41:12.106Z,18.85
2023-01-28T20:43:41.177Z,18.20
2023-01-28T20:46:14.144Z,20.42
2023-01-28T20:48:41.416Z,18.50
2023-01-28T20:51:10.278Z,17.40
2023-01-28T20:53:37.445Z,22.48
2023-01-28T20:56:06.154Z,21.50
2023-01-28T20:58:33.346Z,24.30
2023-01-28T21:01:00.417Z,19.52
2023-01-28T21:03:27.004Z,23.20
2023-01-28T21:05:53.820Z,22.02
2023-01-28T21:08:20.414Z,23.08
2023-01-28T21:10:47.329Z,21.67
2023-01-28T21:13:15.337Z,21.67
2023-01-28T21:15:51.742Z,23.33
2023-01-28T21:18:18.387Z,21.70
2023-01-28T21:20:45.289Z,21.35
2023-01-28T21:23:14.935Z,20.95
2023-01-28T21:25:50.204Z,18.90
2023-01-28T21:28:17.495Z,21.05
2023-01-28T21:30:44.271Z,21.50
2023-01-28T21:33:11.248Z,21.20
2023-01-28T21:35:39.659Z,19.20
2023-01-28T21:38:06.800Z,19.05
2023-01-28T21:40:34.892Z,21.83
2023-01-28T21:43:02.121Z,20.95
2023-01-28T21:45:29.055Z,20.63
2023-01-28T21:47:55.675Z,21.13
2023-01-28T21:50:23.201Z,22.88
2023-01-28T21:52:50.964Z,21.25
2023-01-28T21:55:18.288Z,23.27
2023-01-28T21:57:44.927Z,21.15
2023-01-28T22:00:13.013Z,18.63
2023-01-28T22:02:40.541Z,18.77
2023-01-28T22:05:07.586Z,21.55
2023-01-28T22:07:34.233Z,20.33
2023-01-28T22:10:00.889Z,16.35
2023-01-28T22:12:28.267Z,21.38
2023-01-28T22:14:55.424Z,20.83
2023-01-28T22:17:22.105Z,12.98
2023-01-28T22:19:48.794Z,20.42
2023-01-28T22:22:16.057Z,20.15
2023-01-28T22:24:42.809Z,22.73
2023-01-28T22:27:09.548Z,23.65
2023-01-28T22:29:36.135Z,25.40
2023-01-28T22:32:04.824Z,19.55
2023-01-28T22:34:31.766Z,21.75
2023-01-28T22:36:58.532Z,22.70
2023-01-28T22:39:25.164Z,22.42
2023-01-28T22:41:51.922Z,19.75
2023-01-28T22:44:20.048Z,19.60
2023-01-28T22:46:47.253Z,21.15
2023-01-28T22:49:15.140Z,20.70
2023-01-28T22:51:42.662Z,22.67
2023-01-28T22:54:11.139Z,17.95
2023-01-28T22:56:38.376Z,21.88
2023-01-28T22:59:05.015Z,17.08
2023-01-28T23:01:32.648Z,19.08
2023-01-28T23:03:59.695Z,23.92
2023-01-28T23:06:27.943Z,19.20
2023-01-28T23:08:56.428Z,17.15
2023-01-28T23:11:28.435Z,19.67
2023-01-28T23:14:18.655Z,19.98
2023-01-28T23:17:04.599Z,18.75
2023-01-28T23:19:49.707Z,20.38
2023-01-28T23:22:45.782Z,17.73
2023-01-28T23:25:12.651Z,21.52
2023-01-28T23:27:39.273Z,20.65
2023-01-28T23:30:10.239Z,20.05
2023-01-28T23:32:40.149Z,17.13
2023-01-28T23:35:11.039Z,17.38
2023-01-28T23:37:37.861Z,17.67
2023-01-28T23:40:06.032Z,22.38
2023-01-28T23:42:32.645Z,20.73
2023-01-28T23:44:59.711Z,19.90
2023-01-28T23:47:26.578Z,17.65
2023-01-28T23:49:53.307Z,17.52
2023-01-28T23:52:20.161Z,16.60
2023-01-28T23:54:46.802Z,17.02
2023-01-28T23:57:13.419Z,18.55
2023-01-28T23:59:40.025Z,18.15
